Time;durP1;ratioP1;P1;durP2;ratioP2;P2;SDS_P1;SDS_P2;PMS_P1;PMS_P2;Temp;Humidity;BMP_temperature;BMP_pressure;BME280_temperature;BME280_humidity;BME280_pressure;Samples;Min_cycle;Max_cycle;Signal;HPM_P1;HPM_P2
2022/05/17 00:01:59;;;;;;;7.22;4.82;;;;;;;21.65;54.27;99874.22;5029899;28;20021;-46
2022/05/17 00:04:25;;;;;;;8.63;5.43;;;;;;;21.70;54.37;99871.47;5048110;28;20107;-48
2022/05/17 00:06:50;;;;;;;6.05;5.13;;;;;;;21.76;54.57;99878.53;5047754;28;20021;-48
2022/05/17 00:09:17;;;;;;;8.93;5.18;;;;;;;21.73;54.89;99870.94;5049246;28;20428;-48
2022/05/17 00:11:47;;;;;;;7.40;4.95;;;;;;;21.62;54.52;99869.34;5049469;28;20029;-46
2022/05/17 00:14:13;;;;;;;6.57;5.30;;;;;;;21.52;54.87;99870.16;5049660;28;20024;-48
2022/05/17 00:16:40;;;;;;;6.15;4.90;;;;;;;21.65;54.29;99864.19;5048397;28;20029;-48
2022/05/17 00:19:05;;;;;;;8.07;5.25;;;;;;;21.57;54.66;99858.50;5048953;28;20017;-47
2022/05/17 00:21:31;;;;;;;9.40;5.40;;;;;;;21.44;54.54;99862.59;5051232;28;20025;-47
2022/05/17 00:23:56;;;;;;;10.02;5.18;;;;;;;21.50;54.63;99868.81;5052643;28;20104;-47
2022/05/17 00:26:22;;;;;;;10.07;5.10;;;;;;;21.48;54.61;99852.84;5051709;28;20104;-48
2022/05/17 00:28:48;;;;;;;9.40;5.00;;;;;;;21.55;54.18;99861.50;5052385;28;20111;-47
2022/05/17 00:31:13;;;;;;;14.57;5.25;;;;;;;21.51;55.05;99862.31;5052178;28;20027;-47
2022/05/17 00:33:38;;;;;;;8.02;4.53;;;;;;;21.37;55.49;99867.44;5052664;28;20020;-47
2022/05/17 00:36:05;;;;;;;7.53;4.90;;;;;;;21.33;55.33;99866.38;5052351;28;20491;-47
2022/05/17 00:38:30;;;;;;;8.38;4.80;;;;;;;21.34;55.48;99866.06;5052204;28;20017;-47
2022/05/17 00:40:56;;;;;;;6.47;4.82;;;;;;;21.34;55.42;99866.06;5052212;28;20094;-47
2022/05/17 00:46:22;;;;;;;7.25;4.68;;;;;;;21.26;55.45;99862.03;5052556;28;20036;-46
2022/05/17 00:48:48;;;;;;;;;;;;;;;21.46;55.29;99866.66;5038099;28;20021;-47
2022/05/17 00:51:14;;;;;;;8.25;5.32;;;;;;;21.29;55.78;99863.38;5032714;28;19924;-46
2022/05/17 00:53:39;;;;;;;7.03;5.10;;;;;;;21.24;55.28;99875.00;5032810;28;20026;-47
2022/05/17 00:56:12;;;;;;;8.27;5.63;;;;;;;21.16;56.26;99862.03;5032658;28;20091;-46
2022/05/17 00:58:52;;;;;;;9.57;6.72;;;;;;;21.18;55.88;99864.47;5032040;28;20017;-46
2022/05/17 01:01:24;;;;;;;9.55;6.53;;;;;;;21.11;55.71;99862.03;5032345;28;20401;-47
2022/05/17 01:03:58;;;;;;;8.52;7.28;;;;;;;21.01;56.20;99856.63;5046221;28;20119;-46
2022/05/17 01:06:38;;;;;;;9.38;6.68;;;;;;;21.11;55.95;99855.81;5051804;28;20025;-47
2022/05/17 01:09:04;;;;;;;9.47;7.10;;;;;;;20.98;55.42;99847.16;5052680;28;20068;-47
2022/05/17 01:11:30;;;;;;;10.07;7.18;;;;;;;21.04;55.50;99848.78;5052276;28;20031;-47
2022/05/17 01:16:40;;;;;;;9.88;7.38;;;;;;;21.09;55.24;99856.91;5051839;28;20036;-47
2022/05/17 01:19:08;;;;;;;7.55;6.70;;;;;;;21.15;54.64;99854.19;5051678;28;20021;-49
2022/05/17 01:21:34;;;;;;;8.85;7.10;;;;;;;21.24;54.39;99852.56;5052041;28;20025;-47
2022/05/17 01:23:59;;;;;;;7.72;6.75;;;;;;;21.28;53.67;99854.47;5052114;28;20025;-50
2022/05/17 01:26:28;;;;;;;8.77;6.78;;;;;;;21.17;53.43;99843.91;5051369;28;20613;-47
2022/05/17 01:28:54;;;;;;;8.00;6.60;;;;;;;21.19;53.25;99842.56;5051464;28;20049;-49
2022/05/17 01:31:20;;;;;;;7.72;6.55;;;;;;;21.20;53.40;99846.06;5051811;28;20021;-46
2022/05/17 01:33:46;;;;;;;7.80;7.00;;;;;;;21.18;53.82;99842.81;5050211;28;20043;-50
2022/05/17 01:36:15;;;;;;;9.63;6.72;;;;;;;21.06;53.91;99841.19;5051499;28;20057;-50
2022/05/17 01:38:45;;;;;;;8.30;7.17;;;;;;;21.13;53.87;99842.81;5051536;28;20039;-46
2022/05/17 01:41:11;;;;;;;8.40;7.03;;;;;;;21.09;54.58;99839.84;5051457;28;20730;-47
2022/05/17 01:43:36;;;;;;;8.45;6.35;;;;;;;21.09;54.33;99840.69;5051499;28;20021;-47
2022/05/17 01:46:07;;;;;;;9.38;7.25;;;;;;;21.13;54.08;99835.50;5050761;28;20021;-48
2022/05/17 01:48:32;;;;;;;9.35;7.32;;;;;;;21.14;54.32;99826.31;5051611;28;20532;-48
2022/05/17 01:50:58;;;;;;;8.55;7.50;;;;;;;21.12;54.35;99827.69;5051144;28;20031;-46
2022/05/17 01:53:23;;;;;;;9.82;7.63;;;;;;;21.17;54.22;99825.78;5050481;28;20096;-50
2022/05/17 01:55:49;;;;;;;9.52;7.15;;;;;;;21.08;54.94;99828.22;5050184;28;20112;-47
2022/05/17 01:58:14;;;;;;;9.00;7.70;;;;;;;21.10;54.58;99827.94;5050266;28;20017;-48
2022/05/17 02:00:40;;;;;;;9.80;7.40;;;;;;;21.07;54.61;99829.28;5051053;28;20378;-47
2022/05/17 02:03:05;;;;;;;9.65;7.93;;;;;;;21.02;54.90;99823.09;5043079;28;20338;-49
2022/05/17 02:05:30;;;;;;;11.93;7.63;;;;;;;20.98;54.94;99825.53;5030025;28;20100;-47
2022/05/17 02:07:56;;;;;;;12.32;8.40;;;;;;;21.02;54.73;99826.59;5030180;28;20440;-48
2022/05/17 02:10:25;;;;;;;12.18;8.02;;;;;;;20.78;55.43;99815.50;5030243;28;20025;-47
2022/05/17 02:12:55;;;;;;;10.35;7.75;;;;;;;20.82;55.24;99824.69;5030217;28;20528;-48
2022/05/17 02:15:21;;;;;;;12.63;7.75;;;;;;;20.84;55.18;99819.81;5029929;28;20140;-49
2022/05/17 02:17:47;;;;;;;8.02;7.22;;;;;;;20.85;55.55;99820.66;5029618;28;20048;-48
2022/05/17 02:20:12;;;;;;;13.73;8.07;;;;;;;20.79;55.36;99816.28;5030647;28;20060;-49
2022/05/17 02:22:38;;;;;;;12.57;8.23;;;;;;;20.68;55.76;99821.69;5028846;28;20033;-50
2022/05/17 02:25:04;;;;;;;10.93;8.48;;;;;;;20.80;55.57;99836.88;5029722;28;20026;-50
2022/05/17 02:27:29;;;;;;;12.95;8.57;;;;;;;20.82;55.86;99827.38;5029813;28;20055;-48
2022/05/17 02:29:56;;;;;;;12.45;9.25;;;;;;;20.78;56.01;99825.50;5030087;28;20053;-48
2022/05/17 02:32:21;;;;;;;13.57;8.95;;;;;;;20.78;56.12;99823.59;5030062;28;20045;-49
2022/05/17 02:34:47;;;;;;;13.57;9.20;;;;;;;20.79;55.55;99814.44;5030148;28;20090;-47
2022/05/17 02:37:15;;;;;;;14.13;9.55;;;;;;;20.75;56.07;99823.31;5029175;28;20034;-47
2022/05/17 02:39:41;;;;;;;15.63;9.98;;;;;;;20.78;55.91;99817.41;5029954;28;20457;-51
2022/05/17 02:42:08;;;;;;;14.00;9.63;;;;;;;20.72;55.74;99821.19;5029960;28;20029;-46
2022/05/17 02:44:34;;;;;;;11.43;9.50;;;;;;;20.68;55.67;99810.09;5029261;28;20033;-47
2022/05/17 02:47:00;;;;;;;12.15;9.95;;;;;;;20.61;55.62;99814.94;5029754;28;20078;-46
2022/05/17 02:49:25;;;;;;;11.95;9.57;;;;;;;20.58;56.16;99810.84;5029841;28;20040;-49
2022/05/17 02:51:51;;;;;;;13.85;9.75;;;;;;;20.31;56.54;99817.28;5029742;28;20378;-47
2022/05/17 02:54:16;;;;;;;17.67;10.27;;;;;;;20.16;56.62;99819.09;5030249;28;20029;-50
2022/05/17 02:56:41;;;;;;;11.20;9.75;;;;;;;20.22;56.49;99821.56;5028787;28;20186;-49
2022/05/17 02:59:07;;;;;;;14.60;9.98;;;;;;;20.26;56.58;99830.78;5041888;28;20032;-48
2022/05/17 03:01:33;;;;;;;14.32;10.25;;;;;;;19.50;58.13;99817.69;5049630;28;20025;-48
2022/05/17 03:03:58;;;;;;;13.57;9.50;;;;;;;19.58;57.83;99828.00;5038283;28;20493;-48
2022/05/17 03:06:24;;;;;;;10.65;9.55;;;;;;;19.67;57.60;99818.34;5049384;28;20043;-50
2022/05/17 03:08:50;;;;;;;20.15;17.08;;;;;;;19.66;58.04;99832.09;5049799;28;20036;-50
2022/05/17 03:11:15;;;;;;;14.65;11.32;;;;;;;19.82;57.19;99825.75;5049592;28;20079;-47
2022/05/17 03:13:41;;;;;;;41.55;31.67;;;;;;;19.97;56.98;99834.97;5049773;28;20028;-50
2022/05/17 03:16:07;;;;;;;17.33;13.15;;;;;;;19.83;57.48;99834.63;5049159;28;20146;-47
2022/05/17 03:18:32;;;;;;;15.45;10.80;;;;;;;19.82;57.47;99833.00;5049909;28;20081;-48
2022/05/17 03:20:58;;;;;;;12.23;10.45;;;;;;;19.72;57.64;99840.00;5049258;28;20025;-48
2022/05/17 03:23:23;;;;;;;12.38;10.27;;;;;;;19.52;58.61;99842.53;5049961;28;20023;-47
2022/05/17 03:25:49;;;;;;;15.65;10.43;;;;;;;19.06;60.17;99842.22;5049252;28;20584;-48
2022/05/17 03:28:14;;;;;;;16.83;10.52;;;;;;;19.13;60.09;99845.47;5049119;28;20537;-45
2022/05/17 03:30:41;;;;;;;12.23;10.48;;;;;;;19.16;60.33;99839.59;5049003;28;20043;-49
2022/05/17 03:33:06;;;;;;;13.40;11.20;;;;;;;19.40;59.32;99841.91;5049270;28;20036;-46
2022/05/17 03:35:32;;;;;;;15.07;10.60;;;;;;;19.09;59.57;99838.97;5048996;28;20350;-46
2022/05/17 03:37:57;;;;;;;13.63;10.45;;;;;;;19.45;58.62;99834.66;5048872;28;20071;-47
2022/05/17 03:40:23;;;;;;;11.95;9.95;;;;;;;19.67;58.43;99849.94;5049132;28;20032;-47
2022/05/17 03:42:48;;;;;;;12.07;9.98;;;;;;;19.87;57.55;99844.66;5048476;28;20017;-47
2022/05/17 03:45:14;;;;;;;10.73;9.55;;;;;;;20.24;57.11;99845.63;5047872;28;20025;-47
2022/05/17 03:47:39;;;;;;;11.25;9.02;;;;;;;20.68;55.52;99848.75;5048340;28;20384;-47
2022/05/17 03:50:06;;;;;;;10.30;9.13;;;;;;;21.00;54.31;99853.13;5048745;28;20037;-46
2022/05/17 03:52:32;;;;;;;13.68;8.65;;;;;;;21.30;53.27;99859.59;5048533;28;20025;-46
2022/05/17 03:54:59;;;;;;;9.40;8.15;;;;;;;21.61;52.62;99856.88;5048702;28;20048;-50
2022/05/17 03:57:26;;;;;;;11.00;8.60;;;;;;;21.93;51.61;99850.28;5052171;28;20036;-47
2022/05/17 03:59:53;;;;;;;12.43;8.55;;;;;;;22.29;50.37;99852.88;5052902;28;20048;-49
2022/05/17 04:02:20;;;;;;;11.77;8.70;;;;;;;22.57;49.77;99851.38;5051027;28;20029;-46
2022/05/17 04:04:45;;;;;;;9.20;7.65;;;;;;;22.87;49.18;99852.28;5031269;28;20507;-49
2022/05/17 04:07:11;;;;;;;13.98;8.60;;;;;;;23.19;48.89;99858.03;5032232;28;20113;-47
2022/05/17 04:09:36;;;;;;;19.85;9.65;;;;;;;23.38;48.01;99854.59;5033259;28;20115;-47
2022/05/17 04:12:03;;;;;;;16.10;9.40;;;;;;;23.66;47.14;99863.00;5032807;28;20071;-48
2022/05/17 04:14:29;;;;;;;14.30;8.35;;;;;;;23.97;46.43;99858.91;5031954;28;20033;-49
2022/05/17 04:16:54;;;;;;;9.63;7.88;;;;;;;24.32;45.17;99861.47;5032017;28;20037;-47
2022/05/17 04:19:20;;;;;;;13.00;8.40;;;;;;;24.66;44.51;99860.50;5032226;28;20032;-49
2022/05/17 04:21:47;;;;;;;14.77;10.63;;;;;;;24.90;43.82;99858.50;5032441;28;20473;-47
2022/05/17 04:24:14;;;;;;;15.10;11.00;;;;;;;25.13;43.77;99861.38;5032730;28;20033;-49
2022/05/17 04:26:40;;;;;;;23.58;12.90;;;;;;;25.35;42.80;99866.22;5031330;28;20025;-47
2022/05/17 04:29:07;;;;;;;13.15;8.82;;;;;;;25.75;42.13;99870.09;5031574;28;20535;-48
2022/05/17 04:31:33;;;;;;;13.38;8.70;;;;;;;25.93;41.99;99863.00;5031519;28;20060;-48
2022/05/17 04:33:59;;;;;;;13.90;10.60;;;;;;;26.17;41.00;99859.22;5031406;28;20026;-48
2022/05/17 04:36:25;;;;;;;15.55;11.88;;;;;;;26.48;40.58;99861.28;5030899;28;20053;-48
2022/05/17 04:38:50;;;;;;;11.85;8.15;;;;;;;26.81;39.59;99856.47;5050706;28;20401;-50
2022/05/17 04:41:16;;;;;;;12.43;7.65;;;;;;;26.99;39.50;99854.69;5051782;28;20032;-48
2022/05/17 04:43:42;;;;;;;12.57;7.97;;;;;;;27.11;40.19;99857.66;5051976;28;20135;-48
2022/05/17 04:46:09;;;;;;;11.60;8.10;;;;;;;27.49;38.37;99857.28;5051151;28;20075;-47
2022/05/17 04:48:34;;;;;;;9.73;8.00;;;;;;;27.76;37.50;99855.47;5051569;28;20035;-48
2022/05/17 04:51:00;;;;;;;11.65;7.78;;;;;;;28.00;37.03;99852.34;5052446;28;20032;-48
2022/05/17 04:53:25;;;;;;;28.50;16.33;;;;;;;28.35;36.80;99865.28;5052374;28;20461;-51
2022/05/17 04:55:50;;;;;;;24.08;11.60;;;;;;;28.52;36.06;99854.41;5051639;28;20025;-48
2022/05/17 04:58:16;;;;;;;17.17;7.78;;;;;;;28.93;35.77;99858.56;5050609;28;20025;-50
2022/05/17 05:00:42;;;;;;;16.73;6.93;;;;;;;29.28;35.00;99855.78;5051276;28;20082;-48
2022/05/17 05:03:08;;;;;;;11.60;7.50;;;;;;;29.49;34.31;99853.16;5043289;28;20075;-47
2022/05/17 05:05:33;;;;;;;13.90;8.80;;;;;;;29.46;34.08;99844.81;5030932;28;20029;-48
2022/05/17 05:07:59;;;;;;;27.02;15.88;;;;;;;29.37;34.26;99847.56;5037154;28;20033;-47
2022/05/17 05:10:24;;;;;;;15.07;9.68;;;;;;;29.72;33.87;99852.91;5051939;28;20047;-48
2022/05/17 05:12:50;;;;;;;19.60;16.90;;;;;;;30.14;33.24;99848.38;5050378;28;20036;-48
2022/05/17 05:15:15;;;;;;;11.10;8.18;;;;;;;30.18;32.58;99854.81;5050566;28;20098;-48
2022/05/17 05:17:41;;;;;;;8.77;6.03;;;;;;;30.69;31.92;99848.47;5049281;28;20029;-49
2022/05/17 05:20:12;;;;;;;9.20;6.30;;;;;;;30.15;32.02;99858.19;5050317;28;20108;-48
2022/05/17 05:22:37;;;;;;;10.05;5.65;;;;;;;30.65;31.22;99859.31;5051424;28;20090;-37
2022/05/17 05:25:04;;;;;;;8.57;5.70;;;;;;;30.76;30.67;99862.47;5051507;28;20028;-37
2022/05/17 05:27:35;;;;;;;10.35;5.40;;;;;;;31.01;30.18;99866.16;5043762;28;20029;-37
2022/05/17 05:30:02;;;;;;;8.77;5.47;;;;;;;31.16;30.08;99856.47;5030344;28;20147;-38
2022/05/17 05:32:27;;;;;;;9.10;5.65;;;;;;;31.09;29.53;99861.72;5030589;28;20036;-37
2022/05/17 05:34:53;;;;;;;7.10;4.90;;;;;;;31.32;29.56;99870.38;5029392;28;20029;-37
2022/05/17 05:37:18;;;;;;;10.93;5.07;;;;;;;31.80;29.12;99868.09;5028970;28;20025;-37
2022/05/17 05:39:44;;;;;;;9.38;5.00;;;;;;;32.24;28.48;99858.09;5028393;28;20079;-37
2022/05/17 05:42:09;;;;;;;9.05;5.18;;;;;;;31.95;28.53;99870.94;5029442;28;20367;-38
2022/05/17 05:44:35;;;;;;;6.47;4.80;;;;;;;31.81;28.64;99870.47;5030042;28;20117;-37
2022/05/17 05:47:01;;;;;;;8.60;4.53;;;;;;;32.24;27.89;99869.09;5029466;28;20064;-37
2022/05/17 05:49:26;;;;;;;9.02;4.80;;;;;;;31.81;28.61;99858.66;5030357;28;20066;-37
2022/05/17 05:51:52;;;;;;;7.93;4.82;;;;;;;31.73;28.78;99861.19;5037095;28;20404;-36
2022/05/17 05:54:18;;;;;;;6.90;4.93;;;;;;;32.32;27.81;99859.91;5048711;28;20021;-37
2022/05/17 05:56:43;;;;;;;8.65;4.80;;;;;;;32.63;27.58;99855.72;5049648;28;20021;-38
2022/05/17 05:59:09;;;;;;;10.02;5.03;;;;;;;32.61;27.63;99866.28;5049498;28;20025;-38
2022/05/17 06:01:35;;;;;;;7.88;4.80;;;;;;;32.60;27.67;99852.88;5049286;28;20301;-37
2022/05/17 06:04:01;;;;;;;11.25;4.82;;;;;;;32.86;27.56;99855.19;5032789;28;20409;-37
2022/05/17 06:06:27;;;;;;;8.68;4.97;;;;;;;33.13;27.29;99848.09;5029107;28;20017;-36
2022/05/17 06:08:53;;;;;;;7.63;4.78;;;;;;;33.37;26.92;99857.34;5029321;28;20469;-38
2022/05/17 06:11:19;;;;;;;10.00;4.80;;;;;;;33.37;27.18;99849.88;5028943;28;20489;-37
2022/05/17 06:13:44;;;;;;;6.28;4.60;;;;;;;33.84;25.96;99851.06;5029424;28;20013;-38
2022/05/17 06:16:10;;;;;;;8.63;5.10;;;;;;;34.16;26.63;99851.03;5029171;28;20110;-38
2022/05/17 06:18:36;;;;;;;7.47;4.72;;;;;;;34.06;26.28;99849.59;5028181;28;20060;-37
2022/05/17 06:21:03;;;;;;;8.00;4.70;;;;;;;34.48;25.49;99851.72;5029029;28;20041;-37
2022/05/17 06:23:29;;;;;;;10.95;4.95;;;;;;;34.71;25.71;99854.59;5028931;28;20108;-37
2022/05/17 06:25:55;;;;;;;9.30;5.30;;;;;;;34.74;25.46;99837.28;5028566;28;20452;-37
2022/05/17 06:28:21;;;;;;;6.97;4.85;;;;;;;35.17;25.28;99849.19;5028995;28;20112;-38
2022/05/17 06:30:46;;;;;;;9.35;4.90;;;;;;;35.59;24.80;99850.31;5029032;28;20128;-37
2022/05/17 06:33:14;;;;;;;7.10;4.60;;;;;;;35.75;24.40;99842.66;5029044;28;20116;-37
2022/05/17 06:35:42;;;;;;;9.77;4.65;;;;;;;36.01;23.87;99852.94;5029117;28;20517;-38
2022/05/17 06:38:08;;;;;;;12.17;5.13;;;;;;;36.00;23.92;99837.53;5028418;28;20083;-37
2022/05/17 06:40:35;;;;;;;7.38;4.50;;;;;;;35.48;24.29;99846.56;5029145;28;20025;-38
2022/05/17 06:43:00;;;;;;;5.45;4.70;;;;;;;35.83;24.03;99838.03;5029047;28;20039;-38
2022/05/17 06:45:26;;;;;;;9.85;4.40;;;;;;;35.13;24.18;99839.19;5028717;28;20036;-40
2022/05/17 06:47:52;;;;;;;5.90;4.50;;;;;;;34.49;24.73;99838.72;5029451;28;20032;-37
2022/05/17 06:50:18;;;;;;;10.60;4.90;;;;;;;34.02;25.45;99830.19;5029310;28;20083;-37
2022/05/17 06:52:44;;;;;;;8.25;4.40;;;;;;;34.46;25.18;99837.47;5029488;28;20053;-39
2022/05/17 06:55:11;;;;;;;8.95;4.70;;;;;;;34.87;24.75;99832.41;5028741;28;20072;-37
2022/05/17 06:57:37;;;;;;;6.30;4.55;;;;;;;33.77;25.76;99826.84;5028148;28;20040;-37
2022/05/17 07:00:08;;;;;;;7.30;4.60;;;;;;;34.38;25.85;99828.22;5028832;28;20013;-38
2022/05/17 07:02:34;;;;;;;6.40;4.28;;;;;;;35.13;24.94;99806.81;5032292;28;20047;-38
2022/05/17 07:04:59;;;;;;;5.70;4.35;;;;;;;34.82;25.09;99829.94;5048193;28;20060;-39
2022/05/17 07:07:26;;;;;;;9.30;4.90;;;;;;;35.11;25.05;99828.50;5048305;28;20024;-38
2022/05/17 07:15:19;;;;;;;9.23;4.70;;;;;;;35.05;24.81;99814.19;5048382;28;20032;-38
2022/05/17 07:17:45;;;;;;;8.65;4.65;;;;;;;34.95;24.56;99812.03;5047480;28;20028;-37
2022/05/17 07:20:10;;;;;;;7.28;4.35;;;;;;;35.60;24.25;99805.66;5048309;28;20455;-38
2022/05/17 07:22:37;;;;;;;10.23;4.57;;;;;;;36.09;23.66;99804.00;5048593;28;20562;-37
2022/05/17 07:25:03;;;;;;;8.85;4.50;;;;;;;36.60;23.09;99814.56;5048182;28;20508;-37
2022/05/17 07:27:28;;;;;;;10.02;4.70;;;;;;;36.63;23.46;99810.25;5048065;28;20025;-37
2022/05/17 07:29:54;;;;;;;10.18;4.63;;;;;;;36.10;23.72;99810.34;5048133;28;20308;-37
2022/05/17 07:32:19;;;;;;;6.70;4.38;;;;;;;36.13;23.89;99807.63;5051525;28;20110;-38
2022/05/17 07:34:47;;;;;;;8.35;4.55;;;;;;;36.86;22.64;99799.06;5052586;28;20025;-38
2022/05/17 07:37:13;;;;;;;9.65;4.55;;;;;;;36.92;22.99;99799.50;5051405;28;20052;-38
2022/05/17 07:39:38;;;;;;;6.88;4.50;;;;;;;37.47;22.44;99796.03;5051977;28;20057;-38
2022/05/17 07:42:08;;;;;;;7.85;4.03;;;;;;;38.09;21.38;99796.09;5052523;28;20082;-38
2022/05/17 07:44:34;;;;;;;6.05;4.15;;;;;;;38.25;21.14;99795.78;5052406;28;20036;-38
2022/05/17 07:47:00;;;;;;;6.60;4.47;;;;;;;38.70;20.70;99798.34;5051282;28;20420;-38
2022/05/17 07:49:26;;;;;;;7.20;4.30;;;;;;;37.98;20.97;99792.44;5052028;28;20028;-37
2022/05/17 07:51:52;;;;;;;11.35;4.43;;;;;;;37.66;22.03;99786.69;5051753;28;20025;-37
2022/05/17 07:54:18;;;;;;;6.85;4.88;;;;;;;37.48;21.69;99781.00;5052742;28;20142;-37
2022/05/17 07:56:43;;;;;;;9.20;4.47;;;;;;;38.32;20.83;99789.44;5051939;28;20143;-37
2022/05/17 07:59:09;;;;;;;5.05;4.10;;;;;;;38.74;19.94;99782.47;5050625;28;20028;-38
2022/05/17 08:01:34;;;;;;;6.50;4.70;;;;;;;38.55;20.32;99785.59;5052203;28;20090;-37
2022/05/17 08:04:00;;;;;;;12.10;4.57;;;;;;;38.72;20.61;99780.06;5036578;28;20026;-37
2022/05/17 08:06:25;;;;;;;9.65;4.43;;;;;;;38.65;20.40;99776.47;5031538;28;20033;-38
2022/05/17 08:08:51;;;;;;;7.32;4.63;;;;;;;38.68;20.13;99778.47;5031821;28;20021;-37
2022/05/17 08:11:17;;;;;;;6.03;4.50;;;;;;;38.35;20.33;99774.78;5032093;28;20471;-38
2022/05/17 08:13:43;;;;;;;6.22;4.22;;;;;;;37.89;21.05;99767.00;5032197;28;20045;-38
2022/05/17 08:16:08;;;;;;;7.05;4.80;;;;;;;36.59;22.13;99774.19;5031771;28;20166;-36
2022/05/17 08:18:34;;;;;;;10.75;4.50;;;;;;;37.56;21.61;99768.75;5030761;28;20088;-38
2022/05/17 08:21:00;;;;;;;8.63;4.50;;;;;;;37.98;20.97;99770.22;5031575;28;20406;-38
2022/05/17 08:23:25;;;;;;;8.27;4.53;;;;;;;38.41;19.84;99770.44;5031974;28;20437;-38
2022/05/17 08:28:35;;;;;;;5.55;4.57;;;;;;;38.65;19.69;99766.16;5031927;28;20464;-38
2022/05/17 08:31:01;;;;;;;4.95;4.38;;;;;;;38.51;19.40;99758.53;5031297;28;20441;-37
2022/05/17 08:33:26;;;;;;;9.23;5.03;;;;;;;38.42;20.23;99758.13;5031438;28;20481;-37
2022/05/17 08:35:54;;;;;;;13.48;4.88;;;;;;;37.26;21.26;99747.56;5031294;28;20022;-36
2022/05/17 08:38:25;;;;;;;8.13;5.15;;;;;;;35.88;22.93;99751.13;5030880;28;20025;-37
2022/05/17 08:41:23;;;;;;;11.55;5.13;;;;;;;35.67;22.89;99743.28;5030805;28;20021;-37
2022/05/17 08:43:53;;;;;;;6.80;5.05;;;;;;;35.80;22.95;99734.41;5031208;28;20084;-38
2022/05/17 08:46:19;;;;;;;7.25;4.72;;;;;;;36.09;22.42;99737.56;5030455;28;20468;-37
2022/05/17 08:48:54;;;;;;;8.63;4.43;;;;;;;36.89;22.28;99736.50;5031659;28;20041;-40
2022/05/17 08:51:28;;;;;;;7.70;4.68;;;;;;;36.83;21.98;99724.19;5030666;28;20033;-37
2022/05/17 08:53:54;;;;;;;6.45;4.70;;;;;;;36.61;21.80;99729.47;5031149;28;20033;-38
2022/05/17 08:56:20;;;;;;;10.25;5.00;;;;;;;36.43;22.07;99729.28;5030957;28;20025;-36
2022/05/17 08:58:49;;;;;;;11.65;5.00;;;;;;;37.06;21.76;99724.75;5029626;28;20099;-37
2022/05/17 09:01:31;;;;;;;4.93;4.40;;;;;;;36.96;21.78;99729.03;5031125;28;20037;-36
2022/05/17 09:04:02;;;;;;;5.80;4.43;;;;;;;36.74;22.76;99722.50;5030884;28;20029;-37
2022/05/17 09:06:27;;;;;;;7.75;4.70;;;;;;;36.99;21.77;99721.94;5030048;28;20029;-37
2022/05/17 09:09:07;;;;;;;11.10;4.63;;;;;;;36.82;21.17;99725.34;5030901;28;20449;-37
2022/05/17 09:11:57;;;;;;;8.80;4.63;;;;;;;36.72;21.42;99715.75;5030681;28;20087;-38
2022/05/17 09:14:37;;;;;;;8.10;4.43;;;;;;;36.78;21.58;99714.22;5030302;28;20374;-38
2022/05/17 09:17:15;;;;;;;8.27;5.13;;;;;;;37.32;21.54;99712.72;5030460;28;20036;-38
2022/05/17 09:19:40;;;;;;;7.25;4.70;;;;;;;37.32;20.91;99700.84;5029217;28;20040;-36
2022/05/17 09:22:06;;;;;;;5.38;4.38;;;;;;;36.71;21.08;99703.06;5030845;28;20494;-38
2022/05/17 09:24:41;;;;;;;8.73;4.60;;;;;;;36.58;22.49;99705.31;5029181;28;20029;-38
2022/05/17 09:27:20;;;;;;;10.70;5.15;;;;;;;36.89;21.19;99709.56;5029736;28;20040;-37
2022/05/17 09:29:46;;;;;;;;;;;;;;;37.45;21.92;99704.06;5030409;28;20068;-38
2022/05/17 09:32:22;;;;;;;6.90;4.75;;;;;;;36.79;21.89;99702.75;5030183;28;20359;-37
2022/05/17 09:34:58;;;;;;;6.85;4.47;;;;;;;37.19;20.84;99702.31;5029812;28;20101;-38
2022/05/17 09:37:30;;;;;;;7.35;4.90;;;;;;;36.96;21.22;99694.97;5030612;28;20030;-38
2022/05/17 09:39:55;;;;;;;6.90;4.40;;;;;;;37.14;21.31;99687.59;5028756;28;20025;-39
2022/05/17 09:42:28;;;;;;;8.10;4.75;;;;;;;36.75;21.44;99690.06;5030309;28;20043;-39
2022/05/17 09:44:56;;;;;;;7.65;5.03;;;;;;;36.68;21.86;99682.47;5030090;28;20035;-39
2022/05/17 09:47:29;;;;;;;8.18;4.93;;;;;;;36.27;22.66;99678.84;5029628;28;20092;-38
2022/05/17 09:52:45;;;;;;;7.97;4.72;;;;;;;36.56;21.75;99666.88;5030388;28;20039;-38
2022/05/17 09:55:22;;;;;;;7.07;4.70;;;;;;;37.29;20.65;99671.09;5029319;28;20310;-39
2022/05/17 09:57:59;;;;;;;7.57;4.75;;;;;;;37.27;21.01;99660.38;5029979;28;20438;-37
2022/05/17 10:00:30;;;;;;;9.63;4.90;;;;;;;37.39;20.76;99664.78;5028074;28;20124;-38
2022/05/17 10:03:04;;;;;;;9.48;4.80;;;;;;;37.37;21.04;99664.38;5029783;28;20079;-37
2022/05/17 10:05:40;;;;;;;7.47;4.72;;;;;;;37.40;20.30;99663.63;5029404;28;20033;-37
2022/05/17 10:08:31;;;;;;;9.57;4.75;;;;;;;37.29;21.09;99658.00;5028899;28;20029;-37
2022/05/17 10:11:13;;;;;;;8.60;5.13;;;;;;;35.91;22.90;99653.47;5010141;28;20496;-37
2022/05/17 10:13:44;;;;;;;6.18;4.78;;;;;;;36.34;21.30;99646.47;5029652;28;20014;-37
2022/05/17 10:16:17;;;;;;;9.52;4.72;;;;;;;36.27;22.08;99640.06;5029160;28;20032;-37
2022/05/17 10:18:46;;;;;;;11.70;4.72;;;;;;;36.23;22.21;99637.25;5028812;28;20025;-38
2022/05/17 10:21:21;;;;;;;8.35;4.75;;;;;;;36.63;21.18;99637.63;5028321;28;20055;-38
2022/05/17 10:24:16;;;;;;;7.75;5.07;;;;;;;35.73;21.85;99631.13;5029712;28;20026;-37
2022/05/17 10:26:48;;;;;;;7.05;4.78;;;;;;;36.09;21.81;99631.56;5028546;28;20469;-38
2022/05/17 10:29:36;;;;;;;8.38;4.55;;;;;;;35.28;22.19;99630.91;5029083;28;20056;-38
2022/05/17 10:32:10;;;;;;;7.72;4.53;;;;;;;35.88;22.04;99612.72;5029055;28;20026;-38
2022/05/17 10:34:58;;;;;;;6.78;4.80;;;;;;;35.47;23.10;99615.34;5028932;28;20127;-38
2022/05/17 10:37:32;;;;;;;7.65;4.50;;;;;;;35.80;22.13;99601.56;5028821;28;20548;-38
2022/05/17 10:40:19;;;;;;;9.52;4.70;;;;;;;34.98;21.89;99611.47;5027568;28;20028;-38
2022/05/17 10:42:45;;;;;;;4.63;4.20;;;;;;;35.21;21.89;99603.94;5029129;28;20036;-37
2022/05/17 10:45:22;;;;;;;9.35;4.60;;;;;;;35.03;22.75;99603.66;5028935;28;20394;-38
2022/05/17 10:48:25;;;;;;;7.53;4.50;;;;;;;35.48;21.82;99603.13;5028441;28;20025;-37
2022/05/17 10:51:22;;;;;;;5.75;4.47;;;;;;;36.27;21.63;99588.25;5029154;28;20123;-37
2022/05/17 10:54:09;;;;;;;7.70;4.50;;;;;;;36.47;20.80;99593.56;5021580;28;20141;-37
2022/05/17 10:57:02;;;;;;;7.57;4.32;;;;;;;37.12;20.13;99595.66;5028969;28;20085;-39
2022/05/17 10:59:57;;;;;;;10.10;4.53;;;;;;;36.74;20.27;99575.59;5027613;28;20172;-37
2022/05/17 11:02:25;;;;;;;6.72;4.20;;;;;;;35.71;20.56;99576.16;5030740;28;20524;-38
2022/05/17 11:05:28;;;;;;;9.10;4.22;;;;;;;34.83;21.57;99575.31;5048844;28;20131;-39
2022/05/17 11:07:58;;;;;;;5.32;4.28;;;;;;;34.93;21.19;99571.13;5048477;28;20044;-37
2022/05/17 11:10:37;;;;;;;6.00;4.40;;;;;;;34.35;22.03;99568.56;5048362;28;20036;-38
2022/05/17 11:13:14;;;;;;;7.63;4.30;;;;;;;33.50;22.71;99567.34;5048840;28;20475;-38
2022/05/17 11:15:51;;;;;;;14.65;4.55;;;;;;;34.73;20.83;99558.56;5044881;28;20045;-37
2022/05/17 11:18:37;;;;;;;13.80;4.38;;;;;;;35.27;20.87;99556.63;5027989;28;20142;-38
2022/05/17 11:21:10;;;;;;;9.35;3.10;;;;;;;34.94;18.08;99552.56;5027243;28;20498;-37
2022/05/17 11:23:40;;;;;;;6.70;2.60;;;;;;;35.48;15.50;99550.56;5029445;28;20117;-37
2022/05/17 11:26:53;;;;;;;4.28;2.40;;;;;;;35.63;16.12;99539.28;5029046;28;20494;-37
2022/05/17 11:29:49;;;;;;;4.80;2.38;;;;;;;36.04;16.37;99533.00;5013237;28;20068;-37
2022/05/17 11:32:36;;;;;;;3.25;2.50;;;;;;;36.79;15.18;99535.66;5028804;28;20049;-38
2022/05/17 11:35:23;;;;;;;4.07;2.70;;;;;;;36.51;15.97;99525.91;5028574;28;20018;-37
2022/05/17 11:37:50;;;;;;;8.98;2.65;;;;;;;36.66;15.91;99526.06;5028460;28;20394;-37
2022/05/17 11:40:47;;;;;;;2.95;2.55;;;;;;;36.70;15.38;99522.13;5026825;28;20094;-38
2022/05/17 11:43:41;;;;;;;4.07;2.60;;;;;;;36.99;15.15;99527.84;5028350;28;20057;-39
2022/05/17 11:46:24;;;;;;;6.38;2.78;;;;;;;38.04;14.23;99513.19;5017817;28;20034;-38
2022/05/17 11:48:57;;;;;;;4.85;2.70;;;;;;;37.11;15.85;99519.22;5027945;28;20116;-38
2022/05/17 11:51:35;;;;;;;7.00;3.20;;;;;;;37.17;15.48;99508.56;5028754;28;20029;-38
2022/05/17 11:54:03;;;;;;;7.50;2.87;;;;;;;36.69;16.14;99509.47;5027997;28;20116;-38
2022/05/17 11:56:32;;;;;;;4.00;2.78;;;;;;;37.63;15.95;99504.41;5028507;28;20068;-38